Time;durP1;ratioP1;P1;durP2;ratioP2;P2;SDS_P1;SDS_P2;PMS_P1;PMS_P2;Temp;Humidity;BMP_temperature;BMP_pressure;BME280_temperature;BME280_humidity;BME280_pressure;Samples;Min_cycle;Max_cycle;Signal;HPM_P1;HPM_P2
2023/04/20 00:02:01;;;;;;;0.30;0.30;;;;;;;10.44;39.40;101472.34;6396189;23;20000;-82
2023/04/20 00:04:33;;;;;;;0.50;0.50;;;;;;;10.41;39.53;101468.03;6395554;23;20009;-82
2023/04/20 00:07:04;;;;;;;0.60;0.60;;;;;;;10.11;40.04;101459.63;6407541;23;20072;-82
2023/04/20 00:09:34;;;;;;;0.73;0.70;;;;;;;10.15;39.33;101460.47;6424405;23;20457;-82
2023/04/20 00:12:05;;;;;;;0.65;0.65;;;;;;;10.20;39.64;101449.03;6421752;23;20047;-83
2023/04/20 00:14:36;;;;;;;0.75;0.75;;;;;;;10.33;39.66;101447.09;6394874;23;20013;-82
2023/04/20 00:17:06;;;;;;;1.58;0.52;;;;;;;10.39;39.23;101449.66;6423832;23;20008;-81
2023/04/20 00:19:37;;;;;;;34.28;2.53;;;;;;;10.27;39.54;101435.81;6398269;23;20023;-81
2023/04/20 00:22:07;;;;;;;0.50;0.50;;;;;;;10.34;39.64;101434.84;6399286;23;20008;-82
2023/04/20 00:24:38;;;;;;;0.30;0.30;;;;;;;10.44;39.23;101438.25;6404862;23;20016;-83
2023/04/20 00:27:08;;;;;;;0.50;0.50;;;;;;;10.22;39.45;101435.88;6437950;23;20024;-82
2023/04/20 00:29:39;;;;;;;1.17;1.10;;;;;;;10.30;39.88;101428.78;6400469;23;20016;-81
2023/04/20 00:32:09;;;;;;;1.02;1.00;;;;;;;10.22;39.70;101425.38;6400993;23;20001;-81
2023/04/20 00:34:40;;;;;;;1.95;1.05;;;;;;;10.27;39.95;101415.72;6398491;23;20009;-81
2023/04/20 00:37:10;;;;;;;1.00;1.00;;;;;;;10.16;40.10;101413.25;6433559;23;20001;-81
2023/04/20 00:39:41;;;;;;;6.28;0.85;;;;;;;10.11;39.91;101404.56;6401416;23;20094;-81
2023/04/20 00:42:11;;;;;;;5.72;1.70;;;;;;;10.18;40.09;101402.75;6399191;23;20004;-82
2023/04/20 00:44:42;;;;;;;0.30;0.30;;;;;;;9.89;40.40;101394.41;6397331;23;20008;-82
2023/04/20 00:47:12;;;;;;;0.55;0.55;;;;;;;9.80;40.14;101384.03;6402144;23;20005;-82
2023/04/20 00:49:43;;;;;;;0.30;0.30;;;;;;;10.07;39.91;101390.63;6396183;23;20709;-81
2023/04/20 00:52:13;;;;;;;0.35;0.35;;;;;;;9.94;40.09;101381.22;6395900;23;20444;-82
2023/04/20 00:54:44;;;;;;;0.30;0.30;;;;;;;9.73;40.18;101382.38;6400159;23;20399;-81
2023/04/20 00:57:18;;;;;;;0.47;0.47;;;;;;;9.83;39.93;101370.00;6377782;23;20074;-81
2023/04/20 00:59:52;;;;;;;0.70;0.70;;;;;;;9.67;40.18;101366.75;6398447;23;20469;-82
2023/04/20 01:02:22;;;;;;;0.77;0.77;;;;;;;9.82;39.94;101368.28;6409319;23;20076;-80
2023/04/20 01:04:53;;;;;;;0.63;0.63;;;;;;;9.63;40.10;101365.88;6421909;23;20017;-81
2023/04/20 01:07:23;;;;;;;0.40;0.40;;;;;;;9.52;40.85;101357.31;6397225;23;20039;-82
2023/04/20 01:09:54;;;;;;;0.50;0.50;;;;;;;9.41;40.74;101353.06;6395916;23;20080;-81
2023/04/20 01:12:24;;;;;;;1.30;0.80;;;;;;;9.67;40.07;101349.25;6395668;23;20115;-82
2023/04/20 01:14:55;;;;;;;0.22;0.22;;;;;;;9.60;40.49;101364.19;6394639;23;20092;-82
2023/04/20 01:17:25;;;;;;;0.50;0.50;;;;;;;9.60;40.37;101353.69;6406222;23;20087;-81
2023/04/20 01:19:56;;;;;;;1.00;1.00;;;;;;;9.50;40.41;101352.09;6421726;23;20013;-81
2023/04/20 01:22:26;;;;;;;0.30;0.30;;;;;;;9.29;40.85;101348.84;6394178;23;20062;-82
2023/04/20 01:24:57;;;;;;;0.65;0.65;;;;;;;9.53;40.38;101345.94;6394682;23;20013;-82
2023/04/20 01:27:27;;;;;;;0.82;0.82;;;;;;;9.57;40.30;101343.28;6413250;23;20156;-82
2023/04/20 01:29:57;;;;;;;0.43;0.43;;;;;;;9.56;39.65;101340.66;6410377;23;20017;-82
2023/04/20 01:32:28;;;;;;;0.30;0.30;;;;;;;9.36;40.38;101339.16;6399774;23;20066;-81
2023/04/20 01:34:59;;;;;;;0.50;0.50;;;;;;;9.49;40.27;101334.66;6406383;23;20043;-82
2023/04/20 01:37:30;;;;;;;0.40;0.40;;;;;;;9.48;39.86;101332.91;6435934;23;20012;-82
2023/04/20 01:40:01;;;;;;;0.55;0.55;;;;;;;9.48;40.11;101332.91;6422605;23;20021;-81
2023/04/20 01:42:31;;;;;;;0.52;0.52;;;;;;;9.37;40.20;101324.31;6399639;23;20016;-82
2023/04/20 01:45:04;;;;;;;2.15;0.98;;;;;;;9.62;39.58;101330.13;6424557;22;20008;-80
2023/04/20 01:47:35;;;;;;;0.40;0.40;;;;;;;9.57;40.23;101322.31;6397157;23;20012;-82
2023/04/20 01:50:06;;;;;;;0.82;0.82;;;;;;;9.65;39.97;101326.59;6393426;23;20012;-81
2023/04/20 01:52:37;;;;;;;0.50;0.50;;;;;;;9.27;40.55;101324.41;6430051;23;20106;-82
2023/04/20 01:55:07;;;;;;;0.30;0.30;;;;;;;9.49;39.96;101323.28;6392979;23;20023;-82
2023/04/20 01:57:38;;;;;;;0.60;0.60;;;;;;;9.23;39.83;101325.34;6430478;23;20386;-82
2023/04/20 02:00:10;;;;;;;1.17;1.08;;;;;;;9.38;40.58;101321.66;6420744;23;20044;-81
2023/04/20 02:02:41;;;;;;;0.55;0.55;;;;;;;9.26;40.37;101327.06;6394259;23;20544;-81
2023/04/20 02:05:11;;;;;;;0.40;0.40;;;;;;;9.32;40.45;101326.13;6395790;23;20033;-82
2023/04/20 02:07:42;;;;;;;0.60;0.60;;;;;;;9.38;40.02;101321.66;6420870;23;20033;-81
2023/04/20 02:10:12;;;;;;;0.30;0.30;;;;;;;9.32;39.93;101321.75;6368305;23;20020;-81
2023/04/20 02:12:43;;;;;;;0.65;0.65;;;;;;;9.28;40.55;101314.84;6430565;23;20088;-81
2023/04/20 02:15:13;;;;;;;1.13;0.60;;;;;;;9.14;40.27;101301.91;6393334;23;20016;-82
2023/04/20 02:17:44;;;;;;;0.30;0.30;;;;;;;9.36;40.27;101302.50;6398282;23;20008;-82
2023/04/20 02:20:14;;;;;;;0.30;0.30;;;;;;;9.49;39.98;101294.47;6422677;23;20009;-82
2023/04/20 02:22:45;;;;;;;0.88;0.88;;;;;;;9.24;40.63;101295.66;6430386;23;20012;-82
2023/04/20 02:25:17;;;;;;;0.20;0.20;;;;;;;9.36;40.47;101284.19;6394277;23;20016;-82
2023/04/20 02:27:48;;;;;;;1.00;0.40;;;;;;;9.47;40.21;101275.28;6396023;23;20004;-82
2023/04/20 02:30:19;;;;;;;0.65;0.65;;;;;;;9.50;40.24;101262.16;6393930;23;20078;-82
2023/04/20 02:32:49;;;;;;;0.55;0.55;;;;;;;9.40;40.15;101264.91;6420025;23;20403;-81
2023/04/20 02:35:19;;;;;;;0.52;0.52;;;;;;;9.32;40.15;101266.75;6392685;23;20023;-81
2023/04/20 02:37:50;;;;;;;1.60;1.50;;;;;;;9.37;40.53;101272.81;6395729;23;20054;-81
2023/04/20 02:40:21;;;;;;;2.05;1.17;;;;;;;9.44;40.33;101265.72;6393655;23;20020;-81
2023/04/20 02:42:51;;;;;;;0.25;0.25;;;;;;;9.45;40.27;101255.25;6399846;23;20166;-81
2023/04/20 02:45:22;;;;;;;6.43;3.17;;;;;;;9.44;40.21;101248.28;6424912;22;20016;-81
2023/04/20 02:47:52;;;;;;;0.40;0.40;;;;;;;9.41;40.38;101253.53;6409723;23;20004;-81
2023/04/20 02:50:23;;;;;;;0.45;0.45;;;;;;;9.42;40.52;101249.19;6396236;23;20031;-81
2023/04/20 02:52:53;;;;;;;0.63;0.63;;;;;;;9.42;40.22;101243.94;6432901;23;20004;-81
2023/04/20 02:55:24;;;;;;;1.08;1.08;;;;;;;9.38;40.40;101244.84;6424656;22;20039;-81
2023/04/20 02:57:54;;;;;;;0.50;0.43;;;;;;;9.29;40.65;101236.25;6399217;23;20095;-82
2023/04/20 03:00:25;;;;;;;0.52;0.52;;;;;;;9.35;40.62;101232.69;6399607;23;20013;-81
2023/04/20 03:02:55;;;;;;;0.30;0.30;;;;;;;9.44;40.39;101232.56;6425901;23;20008;-81
2023/04/20 03:05:25;;;;;;;0.75;0.75;;;;;;;9.48;40.54;101228.13;6422162;23;20016;-80
2023/04/20 03:07:56;;;;;;;0.30;0.30;;;;;;;9.54;40.61;101232.44;6398958;23;20032;-81
2023/04/20 03:10:26;;;;;;;11.75;1.67;;;;;;;9.45;40.65;101229.06;6396092;23;20017;-82
2023/04/20 03:12:57;;;;;;;1.75;1.30;;;;;;;9.48;40.51;101227.25;6398736;23;20012;-83
2023/04/20 03:15:27;;;;;;;0.30;0.30;;;;;;;9.24;41.43;101217.13;6422015;23;20549;-81
2023/04/20 03:17:58;;;;;;;0.30;0.30;;;;;;;9.24;41.32;101214.50;6400973;23;20077;-82
2023/04/20 03:20:29;;;;;;;1.15;0.77;;;;;;;9.04;42.24;101212.16;6430472;23;20027;-81
2023/04/20 03:23:00;;;;;;;0.73;0.73;;;;;;;9.33;41.57;101217.88;6407200;23;20011;-82
2023/04/20 03:25:31;;;;;;;0.55;0.55;;;;;;;9.41;41.51;101211.63;6406402;23;20016;-82
2023/04/20 03:28:01;;;;;;;0.30;0.30;;;;;;;9.18;42.52;101218.94;6412258;23;20005;-81
2023/04/20 03:30:32;;;;;;;0.50;0.50;;;;;;;9.16;42.55;101212.84;6434570;23;20028;-81
2023/04/20 03:33:02;;;;;;;0.30;0.30;;;;;;;9.35;41.84;101213.47;6446452;23;20009;-81
2023/04/20 03:35:32;;;;;;;0.55;0.55;;;;;;;9.42;41.75;101213.38;6434040;23;20092;-81
2023/04/20 03:38:03;;;;;;;0.28;0.28;;;;;;;9.02;42.85;101213.03;6448010;23;20347;-81
2023/04/20 03:40:34;;;;;;;1.08;1.08;;;;;;;9.08;42.80;101218.22;6405081;23;20084;-81
2023/04/20 03:43:04;;;;;;;1.48;1.38;;;;;;;9.21;42.69;101213.69;6397430;23;20020;-81
2023/04/20 03:45:35;;;;;;;0.47;0.47;;;;;;;9.09;43.04;101225.19;6398544;23;20064;-81
2023/04/20 03:48:05;;;;;;;0.50;0.50;;;;;;;9.03;42.76;101215.66;6376074;23;20430;-81
2023/04/20 03:50:36;;;;;;;0.45;0.45;;;;;;;9.08;42.85;101211.22;6372591;23;20043;-80
2023/04/20 03:53:06;;;;;;;0.98;0.98;;;;;;;9.06;42.95;101210.34;6398093;23;20456;-81
2023/04/20 03:55:37;;;;;;;0.22;0.22;;;;;;;8.79;44.10;101207.22;6398118;23;20107;-80
2023/04/20 03:58:08;;;;;;;0.38;0.38;;;;;;;8.57;44.79;101203.09;6398726;23;20016;-81
2023/04/20 04:00:38;;;;;;;0.30;0.30;;;;;;;8.79;44.23;101201.97;6421057;23;20548;-81
2023/04/20 04:03:09;;;;;;;0.47;0.47;;;;;;;8.92;43.61;101202.69;6433302;23;20000;-81
2023/04/20 04:05:40;;;;;;;4.68;1.38;;;;;;;8.93;43.94;101203.56;6395527;23;20075;-82
2023/04/20 04:08:10;;;;;;;0.30;0.30;;;;;;;8.94;43.67;101202.69;6398202;23;20111;-81
2023/04/20 04:10:41;;;;;;;0.40;0.40;;;;;;;8.97;43.66;101192.16;6396670;23;20016;-81
2023/04/20 04:13:11;;;;;;;0.30;0.30;;;;;;;8.94;44.45;101197.44;6395605;23;20009;-82
2023/04/20 04:15:42;;;;;;;1.08;1.00;;;;;;;9.10;43.54;101196.34;6399610;23;20175;-80
2023/04/20 04:18:12;;;;;;;0.40;0.40;;;;;;;9.16;43.25;101186.66;6441241;23;20439;-81
2023/04/20 04:20:43;;;;;;;0.50;0.43;;;;;;;9.08;43.56;101197.28;6428028;23;20027;-81
2023/04/20 04:23:13;;;;;;;0.30;0.30;;;;;;;8.88;44.19;101197.53;6403924;23;20027;-82
2023/04/20 04:25:44;;;;;;;1.10;1.10;;;;;;;8.63;44.73;101184.75;6398217;23;20048;-81
2023/04/20 04:28:15;;;;;;;0.82;0.82;;;;;;;8.93;44.16;101187.84;6438248;23;20004;-82
2023/04/20 04:30:46;;;;;;;0.30;0.30;;;;;;;8.96;43.78;101188.69;6404306;23;20044;-80
2023/04/20 04:33:17;;;;;;;0.30;0.30;;;;;;;9.00;44.45;101184.25;6399464;23;20004;-81
2023/04/20 04:35:48;;;;;;;0.30;0.30;;;;;;;8.98;43.51;101186.03;6429407;23;20016;-81
2023/04/20 04:38:18;;;;;;;0.30;0.30;;;;;;;9.04;43.52;101180.75;6400571;23;20020;-80
2023/04/20 04:40:51;;;;;;;0.38;0.38;;;;;;;8.85;44.71;101174.00;6404025;23;20071;-80
2023/04/20 04:43:23;;;;;;;0.50;0.50;;;;;;;8.88;44.46;101176.59;6436574;23;20016;-80
2023/04/20 04:45:54;;;;;;;0.30;0.30;;;;;;;8.58;45.03;101170.81;6399594;23;20076;-80
2023/04/20 04:48:24;;;;;;;0.70;0.70;;;;;;;8.82;44.80;101172.28;6398984;23;20055;-80
2023/04/20 04:50:55;;;;;;;0.60;0.60;;;;;;;8.61;45.35;101171.66;6397959;23;20027;-82
2023/04/20 04:53:25;;;;;;;0.30;0.30;;;;;;;8.60;45.75;101172.53;6405507;23;20012;-82
2023/04/20 04:55:55;;;;;;;0.43;0.43;;;;;;;8.47;45.73;101169.19;6399672;23;20095;-81
2023/04/20 04:58:26;;;;;;;0.60;0.60;;;;;;;8.73;44.95;101169.78;6410094;23;20064;-81
2023/04/20 05:00:56;;;;;;;0.38;0.38;;;;;;;8.81;44.68;101171.41;6407702;23;20016;-83
2023/04/20 05:03:27;;;;;;;1.95;0.80;;;;;;;8.80;44.55;101161.81;6426369;23;20016;-83
2023/04/20 05:05:57;;;;;;;0.20;0.20;;;;;;;8.81;45.47;101168.78;6406605;23;20023;-82
2023/04/20 05:08:27;;;;;;;0.50;0.50;;;;;;;8.62;45.65;101172.53;6436332;23;20001;-82
2023/04/20 05:10:58;;;;;;;1.85;1.38;;;;;;;8.64;45.09;101171.63;6402668;23;20024;-82
2023/04/20 05:13:28;;;;;;;0.30;0.30;;;;;;;8.62;45.84;101164.69;6401015;23;20032;-83
2023/04/20 05:15:59;;;;;;;0.55;0.55;;;;;;;8.57;46.55;101164.75;6402554;23;20708;-82
2023/04/20 05:18:29;;;;;;;0.52;0.52;;;;;;;8.74;46.39;101163.66;6376483;23;20005;-83
2023/04/20 05:21:00;;;;;;;0.50;0.50;;;;;;;8.77;46.10;101171.47;6400111;23;20020;-82
2023/04/20 05:23:31;;;;;;;0.47;0.47;;;;;;;8.70;47.13;101164.59;6423397;23;20016;-83
2023/04/20 05:26:01;;;;;;;0.60;0.60;;;;;;;8.60;48.29;101169.91;6400764;23;20111;-83
2023/04/20 05:28:33;;;;;;;0.68;0.68;;;;;;;8.74;47.84;101168.91;6399647;23;20023;-83
2023/04/20 05:31:04;;;;;;;0.25;0.25;;;;;;;8.81;47.15;101167.94;6399784;23;20277;-82
2023/04/20 05:33:34;;;;;;;0.75;0.75;;;;;;;8.86;47.65;101166.13;6438576;23;20025;-83
2023/04/20 05:36:08;;;;;;;0.50;0.50;;;;;;;8.71;48.38;101169.81;6384431;23;20024;-83
2023/04/20 05:38:39;;;;;;;0.30;0.30;;;;;;;8.78;47.89;101168.84;6401618;23;20416;-83
2023/04/20 05:41:09;;;;;;;0.20;0.20;;;;;;;8.89;48.28;101175.69;6421406;23;20127;-83
2023/04/20 05:43:40;;;;;;;0.40;0.40;;;;;;;8.75;48.46;101168.88;6393619;23;20021;-83
2023/04/20 05:46:10;;;;;;;0.40;0.40;;;;;;;8.93;47.35;101177.38;6398874;23;20016;-83
2023/04/20 05:48:40;;;;;;;0.63;0.63;;;;;;;8.66;50.26;101174.22;6397406;23;20062;-82
2023/04/20 05:51:11;;;;;;;0.32;0.32;;;;;;;8.76;48.26;101170.63;6398190;23;20016;-83
2023/04/20 05:53:41;;;;;;;0.22;0.22;;;;;;;8.91;47.40;101168.69;6406222;23;20070;-83
2023/04/20 05:56:13;;;;;;;1.10;1.10;;;;;;;8.89;48.07;101170.44;6373429;23;20516;-83
2023/04/20 05:58:44;;;;;;;0.35;0.35;;;;;;;8.86;48.61;101170.50;6423626;23;20025;-83
2023/04/20 06:01:14;;;;;;;0.52;0.52;;;;;;;8.80;49.62;101172.28;6396520;23;20434;-83
2023/04/20 06:03:46;;;;;;;0.40;0.40;;;;;;;8.85;48.49;101174.84;6397671;23;20055;-83
2023/04/20 06:06:16;;;;;;;0.82;0.82;;;;;;;9.00;48.02;101168.56;6402282;23;20026;-83
2023/04/20 06:08:47;;;;;;;0.52;0.45;;;;;;;8.84;49.11;101167.03;6434970;23;20072;-82
2023/04/20 06:11:17;;;;;;;0.30;0.30;;;;;;;8.73;48.92;101157.56;6433576;23;20283;-83
2023/04/20 06:13:48;;;;;;;0.43;0.43;;;;;;;8.35;52.87;101164.06;6410548;23;20024;-82
2023/04/20 06:16:18;;;;;;;0.45;0.45;;;;;;;8.43;52.24;101162.25;6401301;23;20350;-83
2023/04/20 06:18:49;;;;;;;0.80;0.65;;;;;;;8.62;50.50;101155.06;6403159;23;20020;-83
2023/04/20 06:21:19;;;;;;;0.70;0.70;;;;;;;8.77;49.71;101156.66;6403607;23;20044;-82
2023/04/20 06:23:50;;;;;;;1.02;0.98;;;;;;;8.42;52.01;101152.66;6404738;23;20078;-82
2023/04/20 06:26:20;;;;;;;0.30;0.30;;;;;;;8.27;53.98;101156.31;6405809;23;20020;-82
2023/04/20 06:28:52;;;;;;;0.60;0.60;;;;;;;8.55;50.68;101155.19;6436721;23;20020;-82
2023/04/20 06:31:23;;;;;;;0.57;0.57;;;;;;;8.41;52.98;101145.69;6377709;23;20016;-82
2023/04/20 06:33:53;;;;;;;0.80;0.80;;;;;;;8.58;53.32;101155.13;6408218;23;20415;-83
2023/04/20 06:36:23;;;;;;;1.05;1.05;;;;;;;8.44;54.06;101148.28;6437754;23;20017;-82
2023/04/20 06:38:54;;;;;;;0.60;0.60;;;;;;;8.44;55.59;101145.69;6414235;23;20042;-83
2023/04/20 06:41:24;;;;;;;0.30;0.30;;;;;;;8.40;55.50;101136.13;6422646;22;20011;-84
2023/04/20 06:43:55;;;;;;;0.70;0.70;;;;;;;8.43;56.84;101145.69;6424247;22;20064;-82
2023/04/20 06:46:25;;;;;;;1.00;1.00;;;;;;;8.35;57.95;101128.31;6447725;22;20040;-82
2023/04/20 06:48:56;;;;;;;2.08;1.48;;;;;;;8.62;54.52;101135.91;6410905;23;20364;-82
2023/04/20 06:51:27;;;;;;;0.90;0.90;;;;;;;8.53;56.98;101130.78;6397621;23;20496;-83
2023/04/20 06:53:58;;;;;;;0.77;0.77;;;;;;;8.48;57.57;101133.47;6396378;23;20027;-83
2023/04/20 06:56:28;;;;;;;0.50;0.50;;;;;;;8.47;58.18;101132.56;6395141;23;20016;-83
2023/04/20 06:58:59;;;;;;;0.85;0.85;;;;;;;8.48;56.85;101138.69;6396447;23;20020;-83
2023/04/20 07:01:30;;;;;;;0.50;0.50;;;;;;;8.36;58.43;101126.59;6393045;23;20732;-83
2023/04/20 07:04:00;;;;;;;0.57;0.57;;;;;;;8.06;59.83;101131.25;6398081;23;20083;-83
2023/04/20 07:06:31;;;;;;;0.47;0.47;;;;;;;8.12;59.26;101131.22;6398189;23;20021;-83
2023/04/20 07:09:02;;;;;;;2.17;1.10;;;;;;;8.19;59.23;101129.38;6373368;23;20020;-83
2023/04/20 07:11:33;;;;;;;0.52;0.52;;;;;;;7.96;60.01;101125.25;6372365;23;20013;-84
2023/04/20 07:14:03;;;;;;;0.32;0.32;;;;;;;8.42;56.54;101130.91;6371179;23;20024;-84
2023/04/20 07:16:36;;;;;;;0.70;0.70;;;;;;;8.45;56.28;101123.88;6402577;23;20116;-85
2023/04/20 07:19:06;;;;;;;0.98;0.98;;;;;;;8.48;57.38;101129.09;6403107;22;20343;-85
2023/04/20 07:21:37;;;;;;;0.65;0.65;;;;;;;8.50;55.76;101129.94;6414266;23;20004;-86
2023/04/20 07:24:07;;;;;;;0.65;0.65;;;;;;;8.31;58.15;101130.97;6408980;23;20219;-86
2023/04/20 07:26:38;;;;;;;0.30;0.30;;;;;;;8.43;57.76;101130.00;6406140;23;20461;-87
2023/04/20 07:29:09;;;;;;;0.50;0.50;;;;;;;8.44;58.10;101129.97;6385598;23;20086;-86
2023/04/20 07:31:42;;;;;;;0.65;0.65;;;;;;;8.28;59.06;101120.59;6398971;23;20019;-85
2023/04/20 07:34:12;;;;;;;0.70;0.70;;;;;;;8.12;61.03;101125.97;6427042;23;20024;-84
2023/04/20 07:36:43;;;;;;;0.40;0.40;;;;;;;8.20;60.69;101131.09;6422719;23;20031;-83
2023/04/20 07:39:14;;;;;;;0.30;0.30;;;;;;;8.17;60.52;101132.00;6372183;22;20583;-83
2023/04/20 07:41:45;;;;;;;0.20;0.20;;;;;;;8.17;60.86;101129.41;6398139;23;20024;-83
2023/04/20 07:44:15;;;;;;;0.40;0.40;;;;;;;8.40;59.12;101127.41;6399572;22;20322;-84
2023/04/20 07:46:49;;;;;;;0.50;0.50;;;;;;;8.17;61.65;101129.41;6402120;23;20099;-84
2023/04/20 07:49:19;;;;;;;1.45;0.60;;;;;;;8.37;59.47;101130.94;6397312;23;20532;-82
2023/04/20 07:51:50;;;;;;;0.85;0.85;;;;;;;8.12;62.14;101125.97;6399595;23;20004;-82
2023/04/20 07:54:20;;;;;;;0.35;0.35;;;;;;;8.13;62.04;101127.72;6426760;23;20051;-82
2023/04/20 07:56:52;;;;;;;0.40;0.40;;;;;;;8.13;62.23;101138.16;6398633;23;20019;-83
2023/04/20 07:59:22;;;;;;;0.38;0.38;;;;;;;8.21;61.33;101134.59;6399339;22;20012;-83
2023/04/20 08:01:58;;;;;;;0.65;0.65;;;;;;;8.17;61.93;101128.53;6405888;23;20036;-83
2023/04/20 08:04:29;;;;;;;0.22;0.22;;;;;;;8.18;62.04;101135.50;6405631;22;20004;-83
2023/04/20 08:07:00;;;;;;;0.40;0.40;;;;;;;8.04;61.93;101139.13;6381295;23;20016;-82
2023/04/20 08:09:30;;;;;;;0.93;0.80;;;;;;;8.41;59.82;101130.00;6380299;23;20076;-83
2023/04/20 08:12:01;;;;;;;0.40;0.40;;;;;;;7.95;62.58;101133.13;6415098;23;20016;-83
2023/04/20 08:14:32;;;;;;;0.40;0.40;;;;;;;7.90;63.34;101135.78;6404283;22;20024;-83
2023/04/20 08:17:03;;;;;;;1.05;1.05;;;;;;;8.10;61.66;101132.09;6420396;23;20401;-83
2023/04/20 08:19:33;;;;;;;0.52;0.52;;;;;;;8.09;62.45;101120.78;6435114;23;20096;-82
2023/04/20 08:22:05;;;;;;;0.50;0.50;;;;;;;8.07;62.35;101119.91;6404178;23;20005;-82
2023/04/20 08:24:35;;;;;;;0.47;0.47;;;;;;;8.24;61.64;101124.09;6430676;23;20035;-83
2023/04/20 08:27:07;;;;;;;0.40;0.40;;;;;;;8.12;62.46;101125.97;6403303;23;20067;-83
2023/04/20 08:29:38;;;;;;;0.52;0.52;;;;;;;8.17;61.94;101123.31;6433289;23;20020;-83
2023/04/20 08:32:11;;;;;;;0.40;0.40;;;;;;;8.33;61.00;101124.00;6402043;23;20023;-83
2023/04/20 08:34:41;;;;;;;0.30;0.30;;;;;;;8.38;60.17;101113.50;6400410;23;20012;-83
2023/04/20 08:37:12;;;;;;;0.30;0.30;;;;;;;8.33;60.84;101113.53;6424689;23;20035;-82
2023/04/20 08:39:42;;;;;;;0.30;0.30;;;;;;;8.51;59.86;101117.75;6398197;23;20017;-83
2023/04/20 08:42:14;;;;;;;0.43;0.43;;;;;;;8.51;59.77;101117.75;6409934;23;20005;-83
2023/04/20 08:44:45;;;;;;;0.40;0.40;;;;;;;8.49;60.97;101114.28;6426152;23;20020;-84
2023/04/20 08:47:15;;;;;;;0.20;0.20;;;;;;;8.52;61.02;101111.59;6399241;23;20436;-82
2023/04/20 08:49:51;;;;;;;0.77;0.77;;;;;;;8.48;60.65;101113.38;6411442;23;20463;-83
2023/04/20 08:52:22;;;;;;;0.75;0.75;;;;;;;8.35;61.67;101106.56;6450338;23;20004;-83
2023/04/20 08:54:52;;;;;;;0.93;0.93;;;;;;;8.22;62.33;101104.97;6445124;23;20016;-83
2023/04/20 08:57:24;;;;;;;0.50;0.50;;;;;;;8.34;61.78;101115.28;6409125;23;20095;-83
2023/04/20 08:59:55;;;;;;;0.45;0.45;;;;;;;8.45;61.58;101113.41;6407991;23;20423;-82
2023/04/20 09:02:25;;;;;;;0.43;0.43;;;;;;;8.49;61.11;101106.44;6426697;23;20009;-84
2023/04/20 09:05:03;;;;;;;0.47;0.47;;;;;;;8.50;61.73;101106.41;6407422;23;20087;-83
2023/04/20 09:07:34;;;;;;;0.50;0.50;;;;;;;8.66;61.17;101112.31;6402857;23;20012;-83
2023/04/20 09:10:05;;;;;;;0.45;0.45;;;;;;;8.79;59.92;101102.56;6400229;23;20027;-83
2023/04/20 09:12:42;;;;;;;1.08;0.50;;;;;;;8.65;60.99;101107.09;6411237;23;20465;-83
2023/04/20 09:15:24;;;;;;;1.00;1.00;;;;;;;8.72;61.26;101100.03;6425859;23;20020;-83
2023/04/20 09:17:54;;;;;;;1.10;0.95;;;;;;;8.70;60.84;101105.28;6377116;23;20012;-82
2023/04/20 09:20:32;;;;;;;0.50;0.50;;;;;;;8.85;59.86;101106.81;6398923;23;20112;-82
2023/04/20 09:23:14;;;;;;;0.50;0.50;;;;;;;8.93;59.64;101106.72;6440911;23;20332;-82
2023/04/20 09:25:49;;;;;;;0.77;0.77;;;;;;;8.93;59.50;101111.97;6399536;23;20024;-81
2023/04/20 09:28:19;;;;;;;0.28;0.28;;;;;;;9.04;60.13;101103.94;6435819;23;20039;-82
2023/04/20 09:30:50;;;;;;;0.30;0.30;;;;;;;8.83;61.18;101103.38;6398574;23;20013;-82
2023/04/20 09:33:27;;;;;;;0.73;0.50;;;;;;;8.78;61.24;101105.16;6435121;23;20012;-82
2023/04/20 09:36:04;;;;;;;0.30;0.30;;;;;;;8.76;61.97;101107.81;6429926;23;20036;-81
2023/04/20 09:38:35;;;;;;;1.20;1.10;;;;;;;8.77;62.01;101100.81;6375169;23;20047;-81
2023/04/20 09:41:06;;;;;;;3.85;1.52;;;;;;;8.90;60.75;101099.78;6401753;23;20009;-81
2023/04/20 09:43:36;;;;;;;0.50;0.50;;;;;;;8.67;61.72;101102.69;6399655;23;20424;-81
2023/04/20 09:46:07;;;;;;;0.20;0.20;;;;;;;8.91;61.27;101103.25;6430493;22;20027;-81
2023/04/20 09:48:37;;;;;;;0.20;0.20;;;;;;;8.68;63.05;101098.34;6400400;23;20042;-81
2023/04/20 09:51:08;;;;;;;0.50;0.50;;;;;;;8.90;62.36;101093.66;6406294;23;20020;-82
2023/04/20 09:53:39;;;;;;;0.40;0.40;;;;;;;8.91;62.60;101087.56;6404555;23;20104;-82
2023/04/20 09:56:10;;;;;;;1.75;0.82;;;;;;;9.06;61.89;101086.47;6405427;23;20032;-82
2023/04/20 09:58:42;;;;;;;0.73;0.73;;;;;;;9.16;63.03;101081.94;6403566;23;20008;-82
2023/04/20 10:01:13;;;;;;;0.60;0.60;;;;;;;9.33;61.25;101072.09;6401941;23;20016;-82
2023/04/20 10:03:44;;;;;;;0.35;0.35;;;;;;;9.32;62.41;101070.34;6401607;23;20024;-83
2023/04/20 10:06:29;;;;;;;3.03;0.75;;;;;;;9.34;62.12;101068.56;6403614;23;20024;-82
2023/04/20 10:09:03;;;;;;;0.55;0.55;;;;;;;9.49;62.42;101067.47;6404965;23;20479;-82
2023/04/20 10:11:35;;;;;;;0.38;0.38;;;;;;;9.63;61.34;101061.97;6402008;23;20028;-82
2023/04/20 10:14:15;;;;;;;0.40;0.40;;;;;;;9.75;61.96;101058.28;6401303;22;20028;-83
2023/04/20 10:16:58;;;;;;;0.50;0.50;;;;;;;9.58;59.98;101058.56;6438914;23;20000;-82
2023/04/20 10:19:42;;;;;;;0.30;0.30;;;;;;;9.87;59.17;101047.56;6408953;23;20114;-82
2023/04/20 10:22:31;;;;;;;0.50;0.50;;;;;;;9.87;59.51;101051.94;6434045;23;20005;-82
2023/04/20 10:25:15;;;;;;;0.40;0.40;;;;;;;9.86;58.58;101047.59;6407949;23;20021;-82
2023/04/20 10:28:03;;;;;;;0.35;0.35;;;;;;;9.82;58.53;101043.28;6443993;23;20001;-82
2023/04/20 10:30:35;;;;;;;0.88;0.88;;;;;;;9.61;59.29;101045.44;6402369;23;20096;-82
2023/04/20 10:33:10;;;;;;;0.50;0.50;;;;;;;9.74;59.91;101041.69;6404553;23;20366;-82
2023/04/20 10:35:48;;;;;;;1.75;0.63;;;;;;;9.98;58.83;101044.72;6402364;23;20070;-82
2023/04/20 10:38:32;;;;;;;0.30;0.30;;;;;;;9.71;59.46;101040.88;6439814;23;20060;-83
2023/04/20 10:41:10;;;;;;;0.73;0.73;;;;;;;9.89;58.34;101030.06;6402201;23;20552;-82
2023/04/20 10:43:43;;;;;;;0.85;0.57;;;;;;;9.96;58.51;101017.66;6427431;23;20008;-82
2023/04/20 10:46:20;;;;;;;0.68;0.68;;;;;;;10.10;57.83;101027.88;6430104;23;20013;-83
2023/04/20 10:48:55;;;;;;;0.20;0.20;;;;;;;9.85;58.88;101032.75;6402166;23;20194;-82
2023/04/20 10:51:26;;;;;;;0.47;0.47;;;;;;;10.16;59.24;101061.00;6398874;23;20017;-83
2023/04/20 10:54:07;;;;;;;0.55;0.55;;;;;;;10.20;58.88;101060.91;6399089;23;20020;-83
2023/04/20 10:56:50;;;;;;;0.73;0.73;;;;;;;10.21;59.22;101061.75;6399548;23;20507;-83
2023/04/20 10:59:23;;;;;;;0.35;0.35;;;;;;;10.35;58.33;101058.84;6399423;22;20088;-83
2023/04/20 11:01:54;;;;;;;0.45;0.45;;;;;;;10.37;58.28;101047.47;6398393;23;20005;-82
2023/04/20 11:04:31;;;;;;;0.30;0.30;;;;;;;10.39;58.71;101045.69;6404124;22;20392;-83
2023/04/20 11:07:12;;;;;;;0.20;0.20;;;;;;;10.43;57.50;101037.75;6402496;23;20032;-84
2023/04/20 11:09:43;;;;;;;0.38;0.38;;;;;;;10.56;58.71;101039.22;6403799;23;20036;-83
2023/04/20 11:12:14;;;;;;;0.20;0.20;;;;;;;10.64;59.39;101028.56;6415570;23;20015;-83
2023/04/20 11:15:01;;;;;;;0.50;0.50;;;;;;;10.74;59.00;101030.09;6435198;23;20027;-82
2023/04/20 11:17:33;;;;;;;0.32;0.32;;;;;;;10.71;59.98;101032.75;6408982;23;20039;-83
2023/04/20 11:20:17;;;;;;;0.40;0.40;;;;;;;10.84;59.84;101022.84;6379600;23;20020;-82
2023/04/20 11:22:58;;;;;;;0.20;0.20;;;;;;;10.70;60.32;101018.75;6440781;23;20310;-82
2023/04/20 11:25:32;;;;;;;0.90;0.85;;;;;;;10.98;60.26;101012.88;6378819;23;20072;-82
2023/04/20 11:28:09;;;;;;;0.30;0.30;;;;;;;11.02;58.36;101003.16;6442316;23;20008;-81
2023/04/20 11:30:40;;;;;;;0.20;0.20;;;;;;;11.22;57.80;101010.53;6401628;23;20035;-82
2023/04/20 11:33:12;;;;;;;0.30;0.30;;;;;;;11.30;57.35;101008.59;6403387;23;20004;-85
2023/04/20 11:35:43;;;;;;;0.63;0.63;;;;;;;11.28;57.65;101017.41;6400921;23;20013;-82
2023/04/20 11:38:17;;;;;;;0.25;0.25;;;;;;;11.12;58.34;101015.16;6403863;23;20047;-83
2023/04/20 11:40:47;;;;;;;0.20;0.20;;;;;;;11.11;59.04;101023.09;6404369;23;20458;-82
2023/04/20 11:43:18;;;;;;;0.40;0.40;;;;;;;11.25;58.43;101013.09;6404754;23;20055;-84
2023/04/20 11:46:01;;;;;;;0.20;0.20;;;;;;;11.32;60.08;101011.19;6408150;23;20140;-83
2023/04/20 11:48:32;;;;;;;;;;;;;;;11.17;61.08;101017.69;6417226;23;20096;-82
2023/04/20 11:51:03;;;;;;;0.45;0.45;;;;;;;11.42;58.68;101019.69;6420618;23;19911;-84
2023/04/20 11:53:34;;;;;;;0.68;0.68;;;;;;;11.43;58.87;101018.78;6404521;23;20389;-83